createdAt,value
2019-05-09T00:00:10.549Z,977.17
2019-05-09T00:01:10.544Z,977.17
2019-05-09T00:02:10.536Z,977.14
2019-05-09T00:03:10.533Z,977.13
2019-05-09T00:04:10.527Z,977.15
2019-05-09T00:05:10.519Z,977.15
2019-05-09T00:06:10.515Z,977.11
2019-05-09T00:07:10.510Z,977.1
2019-05-09T00:08:10.558Z,977.1
2019-05-09T00:09:10.500Z,977.07
2019-05-09T00:10:10.495Z,977.09
2019-05-09T00:11:10.489Z,977.04
2019-05-09T00:12:10.482Z,977.06
2019-05-09T00:13:10.482Z,977.02
2019-05-09T00:14:10.473Z,976.99
2019-05-09T00:15:10.472Z,976.98
2019-05-09T00:16:10.460Z,976.96
2019-05-09T00:17:10.460Z,976.92
2019-05-09T00:18:10.460Z,976.99
2019-05-09T00:19:10.443Z,976.99
2019-05-09T00:20:10.437Z,977
2019-05-09T00:21:10.432Z,977.02
2019-05-09T00:22:10.429Z,976.99
2019-05-09T00:23:10.423Z,976.99
2019-05-09T00:24:10.424Z,977.04
2019-05-09T00:25:10.424Z,977.01
2019-05-09T00:26:10.418Z,977.04
2019-05-09T00:27:10.398Z,977.07
2019-05-09T00:28:10.392Z,977.11
2019-05-09T00:29:10.390Z,977.07
2019-05-09T00:30:10.383Z,977.06
2019-05-09T00:31:10.383Z,977.11
2019-05-09T00:32:10.368Z,977.01
2019-05-09T00:33:10.364Z,977.09
2019-05-09T00:34:10.364Z,977.02
2019-05-09T00:35:10.362Z,977.01
2019-05-09T00:36:10.349Z,976.96
2019-05-09T00:37:10.344Z,976.99
2019-05-09T00:38:10.343Z,976.95
2019-05-09T00:39:10.330Z,976.96
2019-05-09T00:40:10.324Z,976.95
2019-05-09T00:41:10.319Z,977.01
2019-05-09T00:42:10.313Z,977.02
2019-05-09T00:43:10.306Z,977
2019-05-09T00:44:10.304Z,976.95
2019-05-09T00:45:10.298Z,976.96
2019-05-09T00:46:10.290Z,977
2019-05-09T00:47:10.298Z,977
2019-05-09T00:48:10.280Z,976.97
2019-05-09T00:49:10.274Z,976.97
2019-05-09T00:50:10.274Z,976.92
2019-05-09T00:51:10.274Z,976.9
2019-05-09T00:52:10.258Z,976.93
2019-05-09T00:53:10.252Z,976.92
2019-05-09T00:54:10.249Z,976.98
2019-05-09T00:55:10.245Z,976.95
2019-05-09T00:56:10.240Z,976.99
2019-05-09T00:57:10.234Z,976.97
2019-05-09T00:58:10.235Z,977
2019-05-09T00:59:10.229Z,977.07
2019-05-09T01:00:10.222Z,977.02
2019-05-09T01:01:10.213Z,977.05
2019-05-09T01:02:10.207Z,977.06
2019-05-09T01:03:10.203Z,977.01
2019-05-09T01:04:10.198Z,977.05
2019-05-09T01:05:10.195Z,977.03
2019-05-09T01:06:10.184Z,976.98
2019-05-09T01:07:10.185Z,977.03
2019-05-09T01:08:10.176Z,977.01
2019-05-09T01:09:10.171Z,976.96
2019-05-09T01:10:10.167Z,976.96
2019-05-09T01:11:12.934Z,976.95
2019-05-09T01:12:10.158Z,976.96
2019-05-09T01:13:10.156Z,976.95
2019-05-09T01:14:10.154Z,976.97
2019-05-09T01:15:10.148Z,976.92
2019-05-09T01:16:10.152Z,976.95
2019-05-09T01:17:10.148Z,976.95
2019-05-09T01:18:10.125Z,976.9
2019-05-09T01:19:10.121Z,976.92
2019-05-09T01:20:10.118Z,976.88
2019-05-09T01:21:10.113Z,976.86
2019-05-09T01:22:10.121Z,976.86
2019-05-09T01:23:10.104Z,976.87
2019-05-09T01:24:10.106Z,976.88
2019-05-09T01:25:10.092Z,976.93
2019-05-09T01:26:10.088Z,976.92
2019-05-09T01:27:10.085Z,976.93
2019-05-09T01:28:10.078Z,976.94
2019-05-09T01:29:10.074Z,976.93
2019-05-09T01:30:10.068Z,976.91
2019-05-09T01:31:10.065Z,976.87
2019-05-09T01:32:10.063Z,976.85
2019-05-09T01:33:10.063Z,976.84
2019-05-09T01:34:10.054Z,976.86
2019-05-09T01:35:10.053Z,976.82
2019-05-09T01:36:10.044Z,976.85
2019-05-09T01:37:10.037Z,976.86
2019-05-09T01:38:10.038Z,976.87
2019-05-09T01:39:10.028Z,976.9
2019-05-09T01:40:10.031Z,976.9
2019-05-09T01:41:24.442Z,976.89
2019-05-09T01:42:10.016Z,976.94
2019-05-09T01:43:10.012Z,976.94
2019-05-09T01:44:10.018Z,976.96
2019-05-09T01:45:10.008Z,976.95
2019-05-09T01:46:09.996Z,976.96
2019-05-09T01:47:09.992Z,976.97
2019-05-09T01:48:09.986Z,976.93
2019-05-09T01:49:09.985Z,976.93
2019-05-09T01:50:09.979Z,976.94
2019-05-09T01:51:09.974Z,976.92
2019-05-09T01:52:09.996Z,976.93
2019-05-09T01:53:09.963Z,976.9
2019-05-09T01:54:09.958Z,976.91
2019-05-09T01:55:09.951Z,976.89
2019-05-09T01:56:09.955Z,976.91
2019-05-09T01:57:09.943Z,976.91
2019-05-09T01:58:09.940Z,976.85
2019-05-09T01:59:09.939Z,976.85
2019-05-09T02:00:09.928Z,976.77
2019-05-09T02:01:09.923Z,976.74
2019-05-09T02:02:09.930Z,976.7
2019-05-09T02:03:09.913Z,976.66
2019-05-09T02:04:09.912Z,976.67
2019-05-09T02:05:09.911Z,976.66
2019-05-09T02:06:09.905Z,976.67
2019-05-09T02:07:09.893Z,976.69
2019-05-09T02:08:09.890Z,976.68
2019-05-09T02:09:09.883Z,976.75
2019-05-09T02:10:09.881Z,976.74
2019-05-09T02:11:09.878Z,976.74
2019-05-09T02:12:09.876Z,976.75
2019-05-09T02:13:09.861Z,976.72
2019-05-09T02:14:09.861Z,976.66
2019-05-09T02:15:09.858Z,976.66
2019-05-09T02:16:09.853Z,976.66
2019-05-09T02:17:09.839Z,976.7
2019-05-09T02:18:09.835Z,976.73
2019-05-09T02:19:09.827Z,976.79
2019-05-09T02:20:09.850Z,976.8
2019-05-09T02:21:12.149Z,976.8
2019-05-09T02:22:09.818Z,976.89
2019-05-09T02:23:09.811Z,976.85
2019-05-09T02:24:09.862Z,976.89
2019-05-09T02:25:09.819Z,976.87
2019-05-09T02:26:09.804Z,976.83
2019-05-09T02:27:09.788Z,976.83
2019-05-09T02:28:09.779Z,976.8
2019-05-09T02:29:09.779Z,976.78
2019-05-09T02:30:09.782Z,976.78
2019-05-09T02:31:09.762Z,976.73
2019-05-09T02:32:09.756Z,976.72
2019-05-09T02:33:09.770Z,976.7
2019-05-09T02:34:09.763Z,976.71
2019-05-09T02:35:09.748Z,976.7
2019-05-09T02:36:09.975Z,976.75
2019-05-09T02:37:09.729Z,976.74
2019-05-09T02:38:09.816Z,976.79
2019-05-09T02:39:09.725Z,976.78
2019-05-09T02:40:10.487Z,976.74
2019-05-09T02:41:09.723Z,976.76
2019-05-09T02:42:13.855Z,976.7
2019-05-09T02:43:10.125Z,976.72
2019-05-09T02:44:09.694Z,976.67
2019-05-09T02:45:09.697Z,976.63
2019-05-09T02:46:10.054Z,976.64
2019-05-09T02:47:09.678Z,976.62
2019-05-09T02:48:09.708Z,976.65
2019-05-09T02:49:09.715Z,976.66
2019-05-09T02:50:10.017Z,976.67
2019-05-09T02:51:09.668Z,976.65
2019-05-09T02:52:09.649Z,976.73
2019-05-09T02:53:09.664Z,976.69
2019-05-09T02:54:10.160Z,976.69
2019-05-09T02:55:10.470Z,976.64
2019-05-09T02:56:09.628Z,976.62
2019-05-09T02:57:09.750Z,976.61
2019-05-09T02:58:09.627Z,976.57
2019-05-09T02:59:10.078Z,976.62
2019-05-09T03:00:09.612Z,976.65
2019-05-09T03:01:09.610Z,976.62
2019-05-09T03:02:09.844Z,976.61
2019-05-09T03:03:09.658Z,976.56
2019-05-09T03:04:09.635Z,976.58
2019-05-09T03:05:09.578Z,976.52
2019-05-09T03:06:09.576Z,976.52
2019-05-09T03:07:09.927Z,976.54
2019-05-09T03:08:09.860Z,976.55
2019-05-09T03:09:10.413Z,976.57
2019-05-09T03:10:09.551Z,976.63
2019-05-09T03:11:10.064Z,976.63
2019-05-09T03:12:22.390Z,976.68
2019-05-09T03:13:09.652Z,976.62
2019-05-09T03:14:09.545Z,976.57
2019-05-09T03:15:09.523Z,976.56
2019-05-09T03:16:09.516Z,976.61
2019-05-09T03:17:09.512Z,976.61
2019-05-09T03:18:09.625Z,976.61
2019-05-09T03:19:09.552Z,976.58
2019-05-09T03:20:09.775Z,976.63
2019-05-09T03:21:09.533Z,976.61
2019-05-09T03:22:09.490Z,976.57
2019-05-09T03:23:09.513Z,976.59
2019-05-09T03:24:10.083Z,976.63
2019-05-09T03:25:09.462Z,976.62
2019-05-09T03:26:09.455Z,976.62
2019-05-09T03:27:09.457Z,976.64
2019-05-09T03:28:09.860Z,976.59
2019-05-09T03:29:09.445Z,976.57
2019-05-09T03:30:11.891Z,976.56
2019-05-09T03:31:09.902Z,976.53
2019-05-09T03:32:09.661Z,976.53
2019-05-09T03:33:10.462Z,976.53
2019-05-09T03:34:09.797Z,976.54
2019-05-09T03:35:09.402Z,976.52
2019-05-09T03:36:09.395Z,976.6
2019-05-09T03:37:09.402Z,976.62
2019-05-09T03:38:09.383Z,976.63
2019-05-09T03:39:09.375Z,976.57
2019-05-09T03:40:09.374Z,976.55
2019-05-09T03:41:09.366Z,976.58
2019-05-09T03:42:09.358Z,976.53
2019-05-09T03:43:09.361Z,976.52
2019-05-09T03:44:09.351Z,976.55
2019-05-09T03:45:09.346Z,976.54
2019-05-09T03:46:09.337Z,976.5
2019-05-09T03:47:09.332Z,976.54
2019-05-09T03:48:09.322Z,976.53
2019-05-09T03:49:09.332Z,976.5
2019-05-09T03:50:09.312Z,976.55
2019-05-09T03:51:09.306Z,976.58
2019-05-09T03:52:09.299Z,976.54
2019-05-09T03:53:09.292Z,976.54
2019-05-09T03:54:09.286Z,976.53
2019-05-09T03:55:09.281Z,976.55
2019-05-09T03:56:09.273Z,976.51
2019-05-09T03:57:09.266Z,976.54
2019-05-09T03:58:09.266Z,976.58
2019-05-09T03:59:09.256Z,976.58
2019-05-09T04:00:09.250Z,976.61
2019-05-09T04:01:10.740Z,976.58
2019-05-09T04:02:10.211Z,976.49
2019-05-09T04:03:09.230Z,976.46
2019-05-09T04:04:09.222Z,976.42
2019-05-09T04:05:09.222Z,976.41
2019-05-09T04:06:09.230Z,976.42
2019-05-09T04:07:09.209Z,976.44
2019-05-09T04:08:09.200Z,976.48
2019-05-09T04:09:09.195Z,976.46
2019-05-09T04:10:09.188Z,976.47
2019-05-09T04:11:09.181Z,976.4
2019-05-09T04:12:09.176Z,976.39
2019-05-09T04:13:11.097Z,976.4
2019-05-09T04:14:09.164Z,976.45
2019-05-09T04:15:09.159Z,976.46
2019-05-09T04:16:09.156Z,976.46
2019-05-09T04:17:09.154Z,976.47
2019-05-09T04:18:09.148Z,976.41
2019-05-09T04:19:09.137Z,976.46
2019-05-09T04:20:09.131Z,976.5
2019-05-09T04:21:09.121Z,976.48
2019-05-09T04:22:09.118Z,976.56
2019-05-09T04:23:09.113Z,976.62
2019-05-09T04:24:09.106Z,976.56
2019-05-09T04:25:09.097Z,976.6
2019-05-09T04:26:09.095Z,976.55
2019-05-09T04:27:09.088Z,976.58
2019-05-09T04:28:09.089Z,976.58
2019-05-09T04:29:09.078Z,976.53
2019-05-09T04:30:09.553Z,976.45
2019-05-09T04:31:09.070Z,976.48
2019-05-09T04:32:09.061Z,976.49
2019-05-09T04:33:09.054Z,976.49
2019-05-09T04:34:09.715Z,976.46
2019-05-09T04:35:09.043Z,976.42
2019-05-09T04:36:09.038Z,976.42
2019-05-09T04:37:11.962Z,976.34
2019-05-09T04:38:09.028Z,976.39
2019-05-09T04:39:12.564Z,976.46
2019-05-09T04:40:09.014Z,976.49
2019-05-09T04:41:09.009Z,976.59
2019-05-09T04:42:08.999Z,976.55
2019-05-09T04:43:15.472Z,976.57
2019-05-09T04:44:14.162Z,976.61
2019-05-09T04:45:10.183Z,976.55
2019-05-09T04:46:12.803Z,976.54
2019-05-09T04:47:08.979Z,976.53
2019-05-09T04:48:13.076Z,976.57
2019-05-09T04:49:08.970Z,976.49
2019-05-09T04:50:08.968Z,976.46
2019-05-09T04:51:08.970Z,976.4
2019-05-09T04:52:08.964Z,976.39
2019-05-09T04:53:08.958Z,976.39
2019-05-09T04:54:08.953Z,976.4
2019-05-09T04:55:09.001Z,976.4
2019-05-09T04:56:08.951Z,976.38
2019-05-09T04:57:08.948Z,976.38
2019-05-09T04:58:09.320Z,976.36
2019-05-09T04:59:08.941Z,976.39
2019-05-09T05:00:10.063Z,976.43
2019-05-09T05:01:08.944Z,976.49
2019-05-09T05:02:08.940Z,976.51
2019-05-09T05:03:08.929Z,976.37
2019-05-09T05:04:08.928Z,976.33
2019-05-09T05:05:08.925Z,976.32
2019-05-09T05:06:08.923Z,976.42
2019-05-09T05:07:08.921Z,976.33
2019-05-09T05:08:08.919Z,976.31
2019-05-09T05:09:08.921Z,976.28
2019-05-09T05:10:09.180Z,976.31
2019-05-09T05:11:08.912Z,976.34
2019-05-09T05:12:08.911Z,976.31
2019-05-09T05:13:22.087Z,976.32
2019-05-09T05:14:09.311Z,976.34
2019-05-09T05:15:08.902Z,976.32
2019-05-09T05:16:08.904Z,976.35
2019-05-09T05:17:11.291Z,976.48
2019-05-09T05:18:08.901Z,976.6
2019-05-09T05:19:08.893Z,976.39
2019-05-09T05:20:08.895Z,976.52
2019-05-09T05:21:08.889Z,976.56
2019-05-09T05:22:08.900Z,976.48
2019-05-09T05:23:08.886Z,976.46
2019-05-09T05:24:08.887Z,976.41
2019-05-09T05:25:09.348Z,976.39
2019-05-09T05:26:09.438Z,976.36
2019-05-09T05:27:08.890Z,976.34
2019-05-09T05:28:08.888Z,976.26
2019-05-09T05:29:08.892Z,976.25
2019-05-09T05:30:08.885Z,976.29
2019-05-09T05:31:08.888Z,976.29
2019-05-09T05:32:08.887Z,976.2
2019-05-09T05:33:08.887Z,976.19
2019-05-09T05:34:08.886Z,976.14
2019-05-09T05:35:08.906Z,976.13
2019-05-09T05:36:08.888Z,976.1
2019-05-09T05:37:08.892Z,976.07
2019-05-09T05:38:08.895Z,976.07
2019-05-09T05:39:08.887Z,976.1
2019-05-09T05:40:08.946Z,976.12
2019-05-09T05:41:08.889Z,976.09
2019-05-09T05:42:08.890Z,976.1
2019-05-09T05:43:08.971Z,976.13
2019-05-09T05:44:08.886Z,976.18
2019-05-09T05:45:08.889Z,976.14
2019-05-09T05:46:08.887Z,976.19
2019-05-09T05:47:08.892Z,976.22
2019-05-09T05:48:08.882Z,976.21
2019-05-09T05:49:08.879Z,976.18
2019-05-09T05:50:08.882Z,976.16
2019-05-09T05:51:08.875Z,976.23
2019-05-09T05:52:08.876Z,976.16
2019-05-09T05:53:08.874Z,976.1
2019-05-09T05:54:08.873Z,976.13
2019-05-09T05:55:08.920Z,976.07
2019-05-09T05:56:08.867Z,976.06
2019-05-09T05:57:08.864Z,976.09
2019-05-09T05:58:08.896Z,976.12
2019-05-09T05:59:08.861Z,976.13
2019-05-09T06:00:08.863Z,976.13
2019-05-09T06:01:08.857Z,976.13
2019-05-09T06:02:08.967Z,976.12
2019-05-09T06:03:08.934Z,976.16
2019-05-09T06:04:08.853Z,976.13
2019-05-09T06:05:08.858Z,976.16
2019-05-09T06:06:09.038Z,976.06
2019-05-09T06:07:08.842Z,976.09
2019-05-09T06:08:08.834Z,976.08
2019-05-09T06:09:08.839Z,976.07
2019-05-09T06:10:08.835Z,976.09
2019-05-09T06:11:12.035Z,976.08
2019-05-09T06:12:08.822Z,976.06
2019-05-09T06:13:08.825Z,976.08
2019-05-09T06:14:11.702Z,976.07
2019-05-09T06:15:08.815Z,976.04
2019-05-09T06:16:08.826Z,976.02
2019-05-09T06:17:08.808Z,976.05
2019-05-09T06:18:08.804Z,976.09
2019-05-09T06:19:09.100Z,976.11
2019-05-09T06:20:09.163Z,976.1
2019-05-09T06:21:09.022Z,976.12
2019-05-09T06:22:08.813Z,976.09
2019-05-09T06:23:08.811Z,976.09
2019-05-09T06:24:08.796Z,976.11
2019-05-09T06:25:09.921Z,976.09
2019-05-09T06:26:10.216Z,976.14
2019-05-09T06:27:10.282Z,976.14
2019-05-09T06:28:08.772Z,976.09
2019-05-09T06:29:08.773Z,976.08
2019-05-09T06:30:08.859Z,976.11
2019-05-09T06:31:08.767Z,976.12
2019-05-09T06:32:08.763Z,976.13
2019-05-09T06:33:09.124Z,976.09
2019-05-09T06:34:08.757Z,976.11
2019-05-09T06:35:08.755Z,976.22
2019-05-09T06:36:08.750Z,976.16
2019-05-09T06:37:09.225Z,976.18
2019-05-09T06:38:08.744Z,976.22
2019-05-09T06:39:08.752Z,976.21
2019-05-09T06:40:08.737Z,976.22
2019-05-09T06:41:11.811Z,976.14
2019-05-09T06:42:09.293Z,976.14
2019-05-09T06:43:08.733Z,976.15
2019-05-09T06:44:14.067Z,976.12
2019-05-09T06:45:08.780Z,976.11
2019-05-09T06:46:08.721Z,976.1
2019-05-09T06:47:08.717Z,976.08
2019-05-09T06:48:08.746Z,976.05
2019-05-09T06:49:24.059Z,976.06
2019-05-09T06:50:08.710Z,976.02
2019-05-09T06:51:08.711Z,976.07
2019-05-09T06:52:08.941Z,976.19
2019-05-09T06:53:08.708Z,976.21
2019-05-09T06:54:08.700Z,976.22
2019-05-09T06:55:08.872Z,976.22
2019-05-09T06:56:08.696Z,976.23
2019-05-09T06:57:08.692Z,976.12
2019-05-09T06:58:09.002Z,976.16
2019-05-09T06:59:08.694Z,976.19
2019-05-09T07:00:08.697Z,976.16
2019-05-09T07:01:08.695Z,976.15
2019-05-09T07:02:08.702Z,976.13
2019-05-09T07:03:08.698Z,976.1
2019-05-09T07:04:09.220Z,976.15
2019-05-09T07:05:08.700Z,976.02
2019-05-09T07:06:08.704Z,976.05
2019-05-09T07:07:08.707Z,976.02
2019-05-09T07:08:08.705Z,975.99
2019-05-09T07:09:08.707Z,975.91
2019-05-09T07:10:08.707Z,975.93
2019-05-09T07:11:08.713Z,975.93
2019-05-09T07:12:08.723Z,975.89
2019-05-09T07:13:08.728Z,975.89
2019-05-09T07:14:08.715Z,975.83
2019-05-09T07:15:09.034Z,975.86
2019-05-09T07:16:08.996Z,975.93
2019-05-09T07:17:08.736Z,975.84
2019-05-09T07:18:08.735Z,975.84
2019-05-09T07:19:08.723Z,975.84
2019-05-09T07:20:08.807Z,975.85
2019-05-09T07:21:08.725Z,975.85
2019-05-09T07:22:09.164Z,975.88
2019-05-09T07:23:09.161Z,975.81
2019-05-09T07:24:08.727Z,975.82
2019-05-09T07:25:10.868Z,975.78
2019-05-09T07:26:08.724Z,975.85
2019-05-09T07:27:08.735Z,975.8
2019-05-09T07:28:08.725Z,975.78
2019-05-09T07:29:08.725Z,975.74
2019-05-09T07:30:08.724Z,975.74
2019-05-09T07:31:11.480Z,975.69
2019-05-09T07:32:08.722Z,975.66
2019-05-09T07:33:08.723Z,975.7
2019-05-09T07:34:08.756Z,975.7
2019-05-09T07:35:08.955Z,975.78
2019-05-09T07:36:08.720Z,975.76
2019-05-09T07:37:08.721Z,975.72
2019-05-09T07:38:08.796Z,975.73
2019-05-09T07:39:09.114Z,975.75
2019-05-09T07:40:08.738Z,975.78
2019-05-09T07:41:09.131Z,975.72
2019-05-09T07:42:08.718Z,975.72
2019-05-09T07:43:08.717Z,975.69
2019-05-09T07:44:08.723Z,975.68
2019-05-09T07:45:09.037Z,975.69
2019-05-09T07:46:09.108Z,975.67
2019-05-09T07:47:08.721Z,975.63
2019-05-09T07:48:08.711Z,975.61
2019-05-09T07:49:08.846Z,975.57
2019-05-09T07:50:08.841Z,975.52
2019-05-09T07:51:08.703Z,975.51
2019-05-09T07:52:10.205Z,975.42
2019-05-09T07:53:09.026Z,975.39
2019-05-09T07:54:20.362Z,975.42
2019-05-09T07:55:09.087Z,975.47
2019-05-09T07:56:08.693Z,975.41
2019-05-09T07:57:08.762Z,975.44
2019-05-09T07:58:08.695Z,975.41
2019-05-09T07:59:08.692Z,975.45
2019-05-09T08:00:08.698Z,975.44
2019-05-09T08:01:08.859Z,975.47
2019-05-09T08:02:08.961Z,975.49
2019-05-09T08:03:12.821Z,975.48
2019-05-09T08:04:08.690Z,975.47
2019-05-09T08:05:08.770Z,975.45
2019-05-09T08:06:09.063Z,975.45
2019-05-09T08:07:08.690Z,975.44
2019-05-09T08:08:08.676Z,975.46
2019-05-09T08:09:08.682Z,975.47
2019-05-09T08:10:11.188Z,975.47
2019-05-09T08:11:09.072Z,975.47
2019-05-09T08:12:08.667Z,975.51
2019-05-09T08:13:11.753Z,975.53
2019-05-09T08:14:10.831Z,975.58
2019-05-09T08:15:16.326Z,975.59
2019-05-09T08:16:13.964Z,975.63
2019-05-09T08:17:08.775Z,975.69
2019-05-09T08:18:08.862Z,975.71
2019-05-09T08:19:08.655Z,975.72
2019-05-09T08:20:08.659Z,975.73
2019-05-09T08:21:08.681Z,975.75
2019-05-09T08:22:08.649Z,975.78
2019-05-09T08:23:08.924Z,975.78
2019-05-09T08:24:08.644Z,975.79
2019-05-09T08:25:08.650Z,975.82
2019-05-09T08:26:09.014Z,975.79
2019-05-09T08:27:08.759Z,975.84
2019-05-09T08:28:09.180Z,975.85
2019-05-09T08:29:09.414Z,975.86
2019-05-09T08:30:08.644Z,975.84
2019-05-09T08:31:08.669Z,975.9
2019-05-09T08:32:08.640Z,975.87
2019-05-09T08:33:08.644Z,975.93
2019-05-09T08:34:08.629Z,975.94
2019-05-09T08:35:08.631Z,975.96
2019-05-09T08:36:09.096Z,975.96
2019-05-09T08:37:08.624Z,975.94
2019-05-09T08:38:08.798Z,975.96
2019-05-09T08:39:08.627Z,975.98
2019-05-09T08:40:08.617Z,975.9
2019-05-09T08:41:09.252Z,975.88
2019-05-09T08:42:08.879Z,975.92
2019-05-09T08:43:08.614Z,975.9
2019-05-09T08:44:08.615Z,975.97
2019-05-09T08:45:23.448Z,976.03
2019-05-09T08:46:08.613Z,976.01
2019-05-09T08:47:08.608Z,976.03
2019-05-09T08:48:09.383Z,976.05
2019-05-09T08:49:08.606Z,976.04
2019-05-09T08:50:08.624Z,976.02
2019-05-09T08:51:08.926Z,976
2019-05-09T08:52:15.105Z,976.02
2019-05-09T08:53:08.605Z,976.03
2019-05-09T08:54:09.265Z,976.02
2019-05-09T08:55:08.616Z,976.03
2019-05-09T08:56:12.542Z,976.02
2019-05-09T08:57:08.596Z,976.03
2019-05-09T08:58:08.595Z,976.02
2019-05-09T08:59:08.599Z,976.06
2019-05-09T09:00:08.601Z,976.09
2019-05-09T09:01:10.361Z,976.11
2019-05-09T09:02:22.131Z,976.16
2019-05-09T09:03:19.204Z,976.04
2019-05-09T09:04:19.203Z,976.16
2019-05-09T09:05:19.203Z,976.11
2019-05-09T09:06:19.997Z,976.17
2019-05-09T09:07:19.252Z,976.24
2019-05-09T09:08:19.198Z,976.24
2019-05-09T09:09:19.187Z,976.21
2019-05-09T09:10:19.185Z,976.21
2019-05-09T09:11:19.170Z,976.19
2019-05-09T09:12:30.103Z,976.24
2019-05-09T09:13:19.181Z,976.22
2019-05-09T09:14:19.178Z,976.26
2019-05-09T09:15:19.177Z,976.23
2019-05-09T09:16:22.402Z,976.25
2019-05-09T09:17:19.157Z,976.28
2019-05-09T09:18:19.157Z,976.25
2019-05-09T09:19:19.170Z,976.27
2019-05-09T09:20:19.167Z,976.27
2019-05-09T09:21:19.165Z,976.32
2019-05-09T09:22:19.168Z,976.27
2019-05-09T09:23:19.153Z,976.26
2019-05-09T09:24:19.158Z,976.21
2019-05-09T09:25:19.142Z,976.18
2019-05-09T09:26:19.141Z,976.13
2019-05-09T09:27:19.137Z,976.18
2019-05-09T09:28:19.132Z,976.15
2019-05-09T09:29:19.134Z,976.08
2019-05-09T09:30:24.577Z,976.04
2019-05-09T09:31:19.128Z,976.02
2019-05-09T09:32:19.202Z,975.97
2019-05-09T09:33:19.128Z,976.04
2019-05-09T09:34:19.128Z,975.99
2019-05-09T09:35:19.129Z,975.97
2019-05-09T09:36:19.133Z,975.93
2019-05-09T09:37:19.130Z,976
2019-05-09T09:38:19.115Z,975.96
2019-05-09T09:39:19.117Z,975.92
2019-05-09T09:40:19.114Z,975.83
2019-05-09T09:41:19.123Z,975.93
2019-05-09T09:42:20.196Z,975.93
2019-05-09T09:43:19.126Z,975.86
2019-05-09T09:44:22.403Z,975.84
2019-05-09T09:45:19.127Z,975.85
2019-05-09T09:46:19.102Z,975.8
2019-05-09T09:47:22.854Z,975.77
2019-05-09T09:48:19.099Z,975.73
2019-05-09T09:49:19.100Z,975.74
2019-05-09T09:50:19.104Z,975.75
2019-05-09T09:51:19.114Z,975.72
2019-05-09T09:52:19.093Z,975.7
2019-05-09T09:53:19.109Z,975.68
2019-05-09T09:54:19.092Z,975.66
2019-05-09T09:55:19.091Z,975.71
2019-05-09T09:56:22.146Z,975.7
2019-05-09T09:57:19.940Z,975.69
2019-05-09T09:58:19.291Z,975.66
2019-05-09T09:59:19.123Z,975.51
2019-05-09T10:00:19.088Z,975.53
2019-05-09T10:01:19.092Z,975.58
2019-05-09T10:02:19.090Z,975.54
2019-05-09T10:03:19.097Z,975.45
2019-05-09T10:04:23.677Z,975.39
2019-05-09T10:05:19.117Z,975.45
2019-05-09T10:06:19.085Z,975.47
2019-05-09T10:07:19.140Z,975.43
2019-05-09T10:08:19.090Z,975.4
2019-05-09T10:09:19.085Z,975.4
2019-05-09T10:10:19.085Z,975.39
2019-05-09T10:11:19.086Z,975.42
2019-05-09T10:12:19.086Z,975.46
2019-05-09T10:13:19.088Z,975.41
2019-05-09T10:14:19.089Z,975.51
2019-05-09T10:15:19.086Z,975.28
2019-05-09T10:16:28.639Z,975.11
2019-05-09T10:17:21.334Z,975.14
2019-05-09T10:18:19.082Z,975.26
2019-05-09T10:19:19.077Z,975.18
2019-05-09T10:20:19.078Z,975.23
2019-05-09T10:21:19.082Z,975.29
2019-05-09T10:22:23.252Z,975.21
2019-05-09T10:23:21.553Z,975.28
2019-05-09T10:24:19.077Z,975.16
2019-05-09T10:25:19.077Z,975.06
2019-05-09T10:26:19.076Z,975.16
2019-05-09T10:27:19.074Z,975.13
2019-05-09T10:28:21.305Z,975.07
2019-05-09T10:29:19.076Z,975.16
2019-05-09T10:30:19.075Z,975.08
2019-05-09T10:31:19.077Z,975.17
2019-05-09T10:32:19.075Z,975.15
2019-05-09T10:33:19.075Z,975.09
2019-05-09T10:34:19.072Z,975.01
2019-05-09T10:35:19.075Z,975.21
2019-05-09T10:36:19.076Z,975.25
2019-05-09T10:37:19.075Z,975.11
2019-05-09T10:38:19.073Z,975.06
2019-05-09T10:39:19.075Z,975.18
2019-05-09T10:40:19.074Z,975.11
2019-05-09T10:41:19.073Z,975.21
2019-05-09T10:42:19.078Z,975.12
2019-05-09T10:43:33.353Z,975.01
2019-05-09T10:44:19.074Z,974.98
2019-05-09T10:45:19.073Z,975.05
2019-05-09T10:46:19.614Z,975.09
2019-05-09T10:47:19.510Z,974.97
2019-05-09T10:48:23.846Z,975.04
2019-05-09T10:49:19.070Z,975.19
2019-05-09T10:50:19.074Z,975.12
2019-05-09T10:51:19.070Z,975.13
2019-05-09T10:52:19.074Z,975.08
2019-05-09T10:53:19.072Z,975.11
2019-05-09T10:54:19.075Z,975.23
2019-05-09T10:55:19.074Z,975.2
2019-05-09T10:56:19.197Z,975.09
2019-05-09T10:57:19.071Z,975.06
2019-05-09T10:58:20.278Z,975.14
2019-05-09T10:59:19.076Z,975.11
2019-05-09T11:00:19.077Z,975.01
2019-05-09T11:01:19.078Z,974.98
2019-05-09T11:02:19.084Z,975
2019-05-09T11:03:19.079Z,974.95
2019-05-09T11:04:19.079Z,974.91
2019-05-09T11:05:19.081Z,974.95
2019-05-09T11:06:19.079Z,975
2019-05-09T11:07:19.085Z,975.08
2019-05-09T11:08:19.087Z,975.01
2019-05-09T11:09:19.091Z,974.95
2019-05-09T11:10:25.363Z,975.05
2019-05-09T11:11:19.109Z,975.06
2019-05-09T11:12:19.088Z,974.89
2019-05-09T11:13:19.139Z,974.91
2019-05-09T11:14:31.888Z,975.11
2019-05-09T11:15:19.092Z,975.02
2019-05-09T11:16:19.095Z,974.99
2019-05-09T11:17:21.741Z,975.01
2019-05-09T11:18:19.101Z,975
2019-05-09T11:19:19.098Z,974.91
2019-05-09T11:20:19.546Z,975.02
2019-05-09T11:21:19.569Z,974.99
2019-05-09T11:22:19.103Z,974.88
2019-05-09T11:23:19.399Z,974.98
2019-05-09T11:24:19.239Z,975.03
2019-05-09T11:25:19.104Z,975.06
2019-05-09T11:26:19.104Z,975.2
2019-05-09T11:27:19.107Z,975.04
2019-05-09T11:28:19.415Z,975
2019-05-09T11:29:19.123Z,975.03
2019-05-09T11:30:19.108Z,975.24
2019-05-09T11:31:19.260Z,975.29
2019-05-09T11:32:19.110Z,975.16
2019-05-09T11:33:19.109Z,975.09
2019-05-09T11:34:19.110Z,975.28
2019-05-09T11:35:19.109Z,975.29
2019-05-09T11:36:21.085Z,975.06
2019-05-09T11:37:22.043Z,975.13
2019-05-09T11:38:31.964Z,975.2
2019-05-09T11:39:35.064Z,975.05
2019-05-09T11:40:19.111Z,975.15
2019-05-09T11:41:19.634Z,975.15
2019-05-09T11:42:19.121Z,975.19
2019-05-09T11:43:19.156Z,975.24
2019-05-09T11:44:19.107Z,975.22
2019-05-09T11:45:19.105Z,975.21
2019-05-09T11:46:19.107Z,975.22
2019-05-09T11:47:31.674Z,975.09
2019-05-09T11:48:19.105Z,975.29
2019-05-09T11:49:19.107Z,975.28
2019-05-09T11:50:22.926Z,975.22
2019-05-09T11:51:22.525Z,975.18
2019-05-09T11:52:19.103Z,975.16
2019-05-09T11:53:19.108Z,975.26
2019-05-09T11:54:19.604Z,975.23
2019-05-09T11:55:29.518Z,975.31
2019-05-09T11:56:19.101Z,975.32
2019-05-09T11:57:19.320Z,975.25
2019-05-09T11:58:19.151Z,975.32
2019-05-09T11:59:19.156Z,975.28
2019-05-09T12:00:19.097Z,975.36
2019-05-09T12:01:19.355Z,975.32
2019-05-09T12:02:19.094Z,975.31
2019-05-09T12:03:19.095Z,975.37
2019-05-09T12:04:19.096Z,975.55
2019-05-09T12:05:19.367Z,975.46
2019-05-09T12:06:19.959Z,975.44
2019-05-09T12:07:19.101Z,975.51
2019-05-09T12:08:19.094Z,975.52
2019-05-09T12:09:19.094Z,975.44
2019-05-09T12:10:19.084Z,975.48
2019-05-09T12:11:19.101Z,975.35
2019-05-09T12:12:19.592Z,975.41
2019-05-09T12:13:19.133Z,975.42
2019-05-09T12:14:19.082Z,975.49
2019-05-09T12:15:19.080Z,975.43
2019-05-09T12:16:19.074Z,975.32
2019-05-09T12:17:19.791Z,975.34
2019-05-09T12:18:19.073Z,975.39
2019-05-09T12:19:19.070Z,975.27
2019-05-09T12:20:19.073Z,975.31
2019-05-09T12:21:19.613Z,975.32
2019-05-09T12:22:19.379Z,975.36
2019-05-09T12:23:19.839Z,975.29
2019-05-09T12:24:19.115Z,975.35
2019-05-09T12:25:19.061Z,975.31
2019-05-09T12:26:19.060Z,975.32
2019-05-09T12:27:19.122Z,975.37
2019-05-09T12:28:20.205Z,975.39
2019-05-09T12:29:19.718Z,975.32
2019-05-09T12:30:19.112Z,975.33
2019-05-09T12:31:19.057Z,975.26